This is the latest recevied weather packets stored in our database for station/object KR8N. If no packets are shown the sender has not sent any weather packets the latest 10 day(s).
| Time | Temp. | Humidity | Pressure | Rain* | Wind** | Luminosity | Snow |
|---|---|---|---|---|---|---|---|
| 1777961763 | 10.56° C | 75% | 1015.4 hPa | 0 mm | - | 0 W/m² | - |
| 1777961461 | 11.67° C | 72% | 1015.5 hPa | 0 mm | - | 0 W/m² | - |
| 1777961159 | 11.67° C | 68% | 1015.4 hPa | 0 mm | - | 0 W/m² | - |
| 1777960855 | 12.22° C | 67% | 1015.4 hPa | 0 mm | - | 0 W/m² | - |
| 1777960550 | 12.22° C | 66% | 1015.6 hPa | 0 mm | - | 0 W/m² | - |
| 1777960247 | 12.22° C | 65% | 1015.4 hPa | 0 mm | - | 0 W/m² | - |
| 1777959945 | 12.22° C | 66% | 1015.5 hPa | 0 mm | - | 0 W/m² | - |
| 1777959643 | 11.67° C | 68% | 1015.5 hPa | 0 mm | - | 0 W/m² | - |
| 1777959339 | 11.67° C | 70% | 1015.6 hPa | 0 mm | - | 0 W/m² | - |
| 1777959036 | 11.67° C | 70% | 1015.4 hPa | 0 mm | - | 0 W/m² | - |
| 1777958733 | 12.78° C | 68% | 1015.5 hPa | 0 mm | - | 0 W/m² | - |
| 1777958431 | 12.78° C | 64% | 1015.5 hPa | 0 mm | - | 0 W/m² | - |
| 1777958127 | 13.33° C | 63% | 1015.4 hPa | 0 mm | - | 0 W/m² | - |
| 1777957826 | 13.33° C | 61% | 1015.4 hPa | 0 mm | - | 0 W/m² | - |
| 1777957524 | 13.33° C | 61% | 1015.5 hPa | 0 mm | - | 0 W/m² | - |
| 1777957222 | 12.78° C | 63% | 1015.2 hPa | 0 mm | - | 0 W/m² | - |
| 1777956917 | 11.67° C | 66% | 1015.4 hPa | 0 mm | - | 0 W/m² | - |
| 1777956615 | 11.11° C | 69% | 1015.3 hPa | 0 mm | - | 0 W/m² | - |
| 1777956312 | 11.67° C | 70% | 1015.2 hPa | 0 mm | - | 0 W/m² | - |
| 1777956009 | 11.67° C | 70% | 1015.2 hPa | 0 mm | - | 0 W/m² | - |
| 1777955705 | 11.67° C | 68% | 1015.3 hPa | 0 mm | - | 0 W/m² | - |
| 1777955402 | 12.22° C | 66% | 1015.2 hPa | 0 mm | - | 0 W/m² | - |
| 1777955097 | 12.78° C | 64% | 1015.1 hPa | 0 mm | - | 0 W/m² | - |
| 1777954795 | 12.78° C | 63% | 1015 hPa | 0 mm | - | 0 W/m² | - |
| 1777954492 | 13.33° C | 61% | 1015.1 hPa | 0 mm | - | 0 W/m² | - |
* Rain latest hour (hover to see other rain measurements)
** Current wind speed in m/s (hover to see current wind gust speed)